createdAt,value
2022-10-15T00:00:37.775Z,100088.88
2022-10-15T00:03:04.359Z,100091.66
2022-10-15T00:05:30.893Z,100094.72
2022-10-15T00:07:57.431Z,100097.50
2022-10-15T00:10:24.102Z,100101.09
2022-10-15T00:12:50.529Z,100090.25
2022-10-15T00:15:17.210Z,100089.16
2022-10-15T00:17:43.613Z,100087.50
2022-10-15T00:20:11.648Z,100085.81
2022-10-15T00:22:38.451Z,100084.13
2022-10-15T00:25:05.642Z,100071.38
2022-10-15T00:27:32.012Z,100067.19
2022-10-15T00:30:00.355Z,100061.63
2022-10-15T00:32:27.046Z,100066.91
2022-10-15T00:34:53.424Z,100080.81
2022-10-15T00:37:20.984Z,100086.59
2022-10-15T00:39:47.367Z,100095.78
2022-10-15T00:42:13.993Z,100095.78
2022-10-15T00:44:49.133Z,100096.59
2022-10-15T00:47:20.648Z,100089.13
2022-10-15T00:49:56.365Z,100086.09
2022-10-15T00:52:30.181Z,100082.47
2022-10-15T00:55:02.096Z,100083.31
2022-10-15T00:57:31.918Z,100085.50
2022-10-15T01:00:02.731Z,100076.09
2022-10-15T01:02:29.215Z,100065.00
2022-10-15T01:04:55.986Z,100061.63
2022-10-15T01:07:22.502Z,100055.53
2022-10-15T01:09:49.121Z,100052.75
2022-10-15T01:12:46.224Z,100054.94
2022-10-15T01:15:19.202Z,100057.72
2022-10-15T01:17:54.882Z,100060.78
2022-10-15T01:20:43.865Z,100075.72
2022-10-15T01:23:44.141Z,100083.75
2022-10-15T01:26:41.537Z,100086.28
2022-10-15T01:29:26.335Z,100079.06
2022-10-15T01:32:28.207Z,100072.13
2022-10-15T01:35:00.685Z,100066.84
2022-10-15T01:37:41.851Z,100055.47
2022-10-15T01:40:38.945Z,100069.94
2022-10-15T01:43:12.270Z,100063.53
2022-10-15T01:45:52.938Z,100057.72
2022-10-15T01:48:21.381Z,100066.03
2022-10-15T01:50:52.924Z,100061.06
2022-10-15T01:53:26.918Z,100059.13
2022-10-15T01:56:04.541Z,100068.56
2022-10-15T01:58:32.011Z,100074.09
2022-10-15T02:00:59.003Z,100070.78
2022-10-15T02:03:25.522Z,100063.53
2022-10-15T02:06:16.803Z,100059.09
2022-10-15T02:09:06.788Z,100050.47
2022-10-15T02:11:47.508Z,100059.31
2022-10-15T02:14:19.916Z,100056.81
2022-10-15T02:17:03.117Z,100045.72
2022-10-15T02:19:43.133Z,100050.38
2022-10-15T02:22:19.025Z,100054.03
2022-10-15T02:24:56.604Z,100056.81
2022-10-15T02:27:24.956Z,100065.97
2022-10-15T02:29:52.953Z,100066.81
2022-10-15T02:32:22.207Z,100065.97
2022-10-15T02:34:50.980Z,100064.03
2022-10-15T02:37:21.009Z,100058.47
2022-10-15T02:39:47.383Z,100067.31
2022-10-15T02:42:16.524Z,100070.69
2022-10-15T02:44:43.220Z,100057.91
2022-10-15T02:47:10.141Z,100065.13
2022-10-15T02:49:37.150Z,100052.09
2022-10-15T02:52:06.985Z,100055.72
2022-10-15T02:54:33.378Z,100054.88
2022-10-15T02:57:05.278Z,100057.66
2022-10-15T02:59:32.276Z,100066.81
2022-10-15T03:02:08.257Z,100067.91
2022-10-15T03:04:45.872Z,100068.75
2022-10-15T03:09:58.178Z,100065.63
2022-10-15T03:12:32.326Z,100053.44
2022-10-15T03:14:58.805Z,100061.19
2022-10-15T03:17:25.798Z,100063.13
2022-10-15T03:19:52.513Z,100053.97
2022-10-15T03:22:18.882Z,100062.31
2022-10-15T03:24:45.242Z,100065.06
2022-10-15T03:27:11.613Z,100067.84
2022-10-15T03:29:38.020Z,100068.09
2022-10-15T03:32:04.586Z,100070.88
2022-10-15T03:34:37.905Z,100070.03
2022-10-15T03:37:04.280Z,100066.72
2022-10-15T03:39:30.650Z,100065.88
2022-10-15T03:41:57.002Z,100082.50
2022-10-15T03:44:23.397Z,100071.66
2022-10-15T03:46:49.780Z,100075.03
2022-10-15T03:49:16.189Z,100073.09
2022-10-15T03:51:42.722Z,100090.59
2022-10-15T03:54:09.457Z,100086.69
2022-10-15T03:56:35.866Z,100095.00
2022-10-15T03:59:02.255Z,100095.84
2022-10-15T04:01:28.786Z,100091.97
2022-10-15T04:03:55.186Z,100093.91
2022-10-15T04:06:21.560Z,100083.91
2022-10-15T04:08:48.062Z,100081.41
2022-10-15T04:11:14.734Z,100073.59
2022-10-15T04:13:41.120Z,100070.00
2022-10-15T04:16:07.609Z,100078.84
2022-10-15T04:18:33.998Z,100079.69
2022-10-15T04:21:01.560Z,100078.03
2022-10-15T04:23:27.990Z,100073.81
2022-10-15T04:25:54.537Z,100080.22
2022-10-15T04:28:20.912Z,100087.69
2022-10-15T04:30:47.441Z,100083.28
2022-10-15T04:33:13.825Z,100073.00
2022-10-15T04:35:40.230Z,100084.09
2022-10-15T04:38:06.601Z,100073.81
2022-10-15T04:40:33.150Z,100060.56
2022-10-15T04:42:59.558Z,100056.09
2022-10-15T04:45:25.946Z,100064.41
2022-10-15T04:47:52.332Z,100061.09
2022-10-15T04:50:18.771Z,100055.53
2022-10-15T04:52:45.242Z,100062.19
2022-10-15T04:55:11.635Z,100065.19
2022-10-15T04:57:38.084Z,100074.91
2022-10-15T05:00:05.528Z,100084.31
2022-10-15T05:02:33.039Z,100083.16
2022-10-15T05:04:59.557Z,100090.91
2022-10-15T05:07:26.400Z,100099.78
2022-10-15T05:09:53.160Z,100104.72
2022-10-15T05:12:20.437Z,100096.41
2022-10-15T05:14:46.847Z,100087.25
2022-10-15T05:17:13.245Z,100080.84
2022-10-15T05:19:39.629Z,100091.13
2022-10-15T05:22:06.011Z,100097.50
2022-10-15T05:24:32.498Z,100096.69
2022-10-15T05:27:01.758Z,100106.09
2022-10-15T05:29:29.417Z,100104.41
2022-10-15T05:31:55.840Z,100108.28
2022-10-15T05:34:22.272Z,100109.66
2022-10-15T05:36:48.619Z,100106.88
2022-10-15T05:39:15.137Z,100098.00
2022-10-15T05:41:41.585Z,100105.47
2022-10-15T05:44:07.948Z,100112.66
2022-10-15T05:46:34.411Z,100116.81
2022-10-15T05:49:00.793Z,100105.16
2022-10-15T05:51:28.421Z,100112.88
2022-10-15T05:53:56.307Z,100111.22
2022-10-15T05:56:23.239Z,100110.06
2022-10-15T05:58:50.188Z,100106.72
2022-10-15T06:01:16.599Z,100113.34
2022-10-15T06:03:43.253Z,100111.69
2022-10-15T06:06:21.339Z,100112.78
2022-10-15T06:08:48.576Z,100113.03
2022-10-15T06:11:15.863Z,100127.72
2022-10-15T06:13:43.718Z,100113.03
2022-10-15T06:16:11.527Z,100110.00
2022-10-15T06:18:38.910Z,100120.25
2022-10-15T06:21:06.744Z,100118.31
2022-10-15T06:23:33.426Z,100115.56
2022-10-15T06:26:08.116Z,100114.72
2022-10-15T06:28:35.740Z,100117.47
2022-10-15T06:31:02.404Z,100123.88
2022-10-15T06:33:29.571Z,100121.09
2022-10-15T06:36:01.331Z,100124.44
2022-10-15T06:38:27.868Z,100127.78
2022-10-15T06:40:54.412Z,100127.28
2022-10-15T06:43:20.938Z,100135.34
2022-10-15T06:45:47.366Z,100135.06
2022-10-15T06:48:13.787Z,100132.88
2022-10-15T06:50:40.635Z,100140.06
2022-10-15T06:53:07.483Z,100140.66
2022-10-15T06:55:35.390Z,100137.38
2022-10-15T06:58:01.976Z,100135.69
2022-10-15T07:00:28.523Z,100136.81
2022-10-15T07:02:54.979Z,100134.59
2022-10-15T07:05:21.516Z,100136.81
2022-10-15T07:07:55.629Z,100152.63
2022-10-15T07:10:23.119Z,100146.84
2022-10-15T07:12:49.619Z,100149.94
2022-10-15T07:15:16.361Z,100155.53
2022-10-15T07:17:50.763Z,100153.63
2022-10-15T07:20:21.712Z,100152.59
2022-10-15T07:22:51.001Z,100148.78
2022-10-15T07:25:17.631Z,100144.69
2022-10-15T07:27:44.013Z,100152.22
2022-10-15T07:30:10.779Z,100159.50
2022-10-15T07:32:37.224Z,100156.19
2022-10-15T07:35:03.915Z,100146.78
2022-10-15T07:37:31.568Z,100148.47
2022-10-15T07:39:57.920Z,100153.50
2022-10-15T07:42:24.323Z,100149.59
2022-10-15T07:44:50.668Z,100143.53
2022-10-15T07:47:17.093Z,100151.88
2022-10-15T07:49:43.493Z,100145.78
2022-10-15T07:52:11.595Z,100147.53
2022-10-15T07:54:38.201Z,100147.53
2022-10-15T07:57:06.953Z,100139.25
2022-10-15T07:59:34.172Z,100132.63
2022-10-15T08:02:00.700Z,100137.13
2022-10-15T08:04:27.244Z,100147.16
2022-10-15T08:06:53.663Z,100139.72
2022-10-15T08:09:20.186Z,100133.06
2022-10-15T08:11:46.695Z,100130.34
2022-10-15T08:14:13.118Z,100134.81
2022-10-15T08:16:39.524Z,100130.69
2022-10-15T08:19:06.012Z,100124.59
2022-10-15T08:21:32.400Z,100116.00
2022-10-15T08:24:00.745Z,100122.47
2022-10-15T08:26:27.309Z,100124.16
2022-10-15T08:28:53.760Z,100122.81
2022-10-15T08:31:20.183Z,100121.44
2022-10-15T08:33:46.640Z,100125.63
2022-10-15T08:36:13.020Z,100120.91
2022-10-15T08:38:39.395Z,100127.03
2022-10-15T08:41:19.861Z,100118.16
2022-10-15T08:43:47.349Z,100130.41
2022-10-15T08:46:24.265Z,100123.19
2022-10-15T08:48:55.037Z,100120.94
2022-10-15T08:51:28.334Z,100114.81
2022-10-15T08:54:04.610Z,100119.28
2022-10-15T08:56:36.650Z,100120.66
2022-10-15T08:59:19.828Z,100120.97
2022-10-15T09:01:55.514Z,100123.72
2022-10-15T09:04:37.972Z,100117.38
2022-10-15T09:07:14.917Z,100118.22
2022-10-15T09:10:01.262Z,100107.63
2022-10-15T09:12:46.408Z,100110.41
2022-10-15T09:15:15.832Z,100106.78
2022-10-15T09:17:44.712Z,100099.88
2022-10-15T09:20:17.212Z,100108.50
2022-10-15T09:22:44.657Z,100103.22
2022-10-15T09:25:16.661Z,100104.88
2022-10-15T09:27:45.907Z,100102.63
2022-10-15T09:30:48.094Z,100092.56
2022-10-15T09:33:37.575Z,100098.66
2022-10-15T09:36:32.365Z,100091.41
2022-10-15T09:39:12.832Z,100086.94
2022-10-15T09:41:57.864Z,100090.78
2022-10-15T09:44:32.072Z,100097.47
2022-10-15T09:46:58.487Z,100099.13
2022-10-15T09:49:28.622Z,100103.06
2022-10-15T09:52:10.281Z,100098.81
2022-10-15T09:54:45.410Z,100091.53
2022-10-15T09:57:14.957Z,100098.16
2022-10-15T10:00:03.976Z,100095.03
2022-10-15T10:02:30.924Z,100099.78
2022-10-15T10:04:57.498Z,100096.72
2022-10-15T10:07:33.589Z,100104.25
2022-10-15T10:10:04.187Z,100097.50
2022-10-15T10:12:36.897Z,100107.22
2022-10-15T10:15:26.344Z,100096.56
2022-10-15T10:17:53.568Z,100097.91
2022-10-15T10:20:24.578Z,100101.09
2022-10-15T10:22:53.876Z,100095.03
2022-10-15T10:25:29.134Z,100090.75
2022-10-15T10:27:56.981Z,100084.69
2022-10-15T10:30:23.939Z,100086.28
2022-10-15T10:32:58.554Z,100072.88
2022-10-15T10:35:43.919Z,100071.63
2022-10-15T10:38:27.881Z,100095.06
2022-10-15T10:41:05.326Z,100084.28
2022-10-15T10:43:38.209Z,100081.38
2022-10-15T10:46:15.074Z,100078.44
2022-10-15T10:48:50.575Z,100076.50
2022-10-15T10:51:20.045Z,100066.63
2022-10-15T10:53:59.354Z,100069.19
2022-10-15T10:56:34.669Z,100066.81
2022-10-15T10:59:25.366Z,100060.97
2022-10-15T11:01:52.003Z,100058.84
2022-10-15T11:04:32.492Z,100059.22
2022-10-15T11:07:21.860Z,100054.41
2022-10-15T11:10:16.428Z,100046.16
2022-10-15T11:13:07.672Z,100048.88
2022-10-15T11:16:02.201Z,100053.56
2022-10-15T11:18:56.668Z,100050.81
2022-10-15T11:21:45.535Z,100051.13
2022-10-15T11:24:21.452Z,100050.03
2022-10-15T11:27:10.750Z,100048.97
2022-10-15T11:29:54.374Z,100045.53
2022-10-15T11:33:11.657Z,100047.50
2022-10-15T11:36:05.162Z,100036.94
2022-10-15T11:38:54.280Z,100039.81
2022-10-15T11:41:37.041Z,100030.56
2022-10-15T11:44:12.279Z,100033.78
2022-10-15T11:46:57.390Z,100030.72
2022-10-15T11:49:49.270Z,100032.94
2022-10-15T11:52:22.022Z,100032.13
2022-10-15T11:55:02.379Z,100028.41
2022-10-15T11:57:32.649Z,100019.47
2022-10-15T12:00:04.432Z,100021.97
2022-10-15T12:02:35.388Z,100014.28
2022-10-15T12:05:10.972Z,100021.06
2022-10-15T12:07:42.767Z,100010.66
2022-10-15T12:10:12.393Z,100012.31
2022-10-15T12:12:47.507Z,100022.56
2022-10-15T12:15:27.041Z,100006.78
2022-10-15T12:18:10.071Z,100004.78
2022-10-15T12:20:37.018Z,100009.00
2022-10-15T12:23:03.762Z,100003.72
2022-10-15T12:25:36.159Z,100002.22
2022-10-15T12:28:04.445Z,99996.63
2022-10-15T12:30:37.035Z,99985.03
2022-10-15T12:33:21.649Z,99993.78
2022-10-15T12:35:55.697Z,99988.06
2022-10-15T12:38:27.459Z,99985.84
2022-10-15T12:41:01.396Z,99984.25
2022-10-15T12:43:28.306Z,100001.28
2022-10-15T12:45:57.834Z,99988.34
2022-10-15T12:48:41.301Z,99980.00
2022-10-15T12:51:16.553Z,99979.78
2022-10-15T12:53:44.563Z,99988.50
2022-10-15T12:56:12.376Z,99986.84
2022-10-15T12:58:40.760Z,99990.25
2022-10-15T13:01:30.556Z,99985.09
2022-10-15T13:04:00.201Z,99979.66
2022-10-15T13:06:36.410Z,99978.50
2022-10-15T13:09:27.009Z,99973.84
2022-10-15T13:11:55.829Z,99971.28
2022-10-15T13:14:25.251Z,99978.44
2022-10-15T13:16:51.820Z,99975.63
2022-10-15T13:19:26.864Z,99974.41
2022-10-15T13:21:58.924Z,99977.94
2022-10-15T13:24:27.889Z,99972.22
2022-10-15T13:26:56.298Z,99970.47
2022-10-15T13:29:25.197Z,99963.75
2022-10-15T13:31:54.527Z,99964.09
2022-10-15T13:34:33.041Z,99947.31
2022-10-15T13:37:01.789Z,99952.53
2022-10-15T13:39:31.914Z,99956.91
2022-10-15T13:42:16.359Z,99963.75
2022-10-15T13:44:44.505Z,99977.66
2022-10-15T13:47:47.577Z,99972.66
2022-10-15T13:50:14.092Z,99972.22
2022-10-15T13:52:42.625Z,99971.72
2022-10-15T13:55:25.331Z,99963.41
2022-10-15T13:58:01.444Z,99971.38
2022-10-15T14:00:31.508Z,99964.94
2022-10-15T14:03:08.083Z,99964.53
2022-10-15T14:05:34.568Z,99969.50
2022-10-15T14:08:01.673Z,99968.66
2022-10-15T14:10:28.141Z,99964.63
2022-10-15T14:12:54.581Z,99967.19
2022-10-15T14:15:47.847Z,99963.28
2022-10-15T14:18:18.477Z,99956.41
2022-10-15T14:20:47.263Z,99969.09
2022-10-15T14:23:21.505Z,99974.06
2022-10-15T14:25:53.965Z,99983.69
2022-10-15T14:28:22.599Z,99964.09
2022-10-15T14:30:49.482Z,99967.63
2022-10-15T14:33:30.896Z,99955.28
2022-10-15T14:36:36.706Z,99962.66
2022-10-15T14:39:27.889Z,99966.78
2022-10-15T14:42:26.999Z,99972.63
2022-10-15T14:44:53.530Z,99977.28
2022-10-15T14:47:26.795Z,99988.75
2022-10-15T14:49:56.413Z,99989.38
2022-10-15T14:52:23.694Z,99979.41
2022-10-15T14:55:02.982Z,99985.16
2022-10-15T14:57:34.625Z,99977.47
2022-10-15T15:00:01.696Z,99983.53
2022-10-15T15:02:29.936Z,99993.94
2022-10-15T15:05:11.388Z,99996.00
2022-10-15T15:07:38.938Z,100001.84
2022-10-15T15:10:07.333Z,100007.28
2022-10-15T15:12:34.945Z,100000.72
2022-10-15T15:15:01.829Z,99997.66
2022-10-15T15:17:30.387Z,100010.28
2022-10-15T15:19:57.865Z,100011.94
2022-10-15T15:22:30.891Z,100017.53
2022-10-15T15:25:00.073Z,100023.75
2022-10-15T15:27:30.703Z,100003.56
2022-10-15T15:29:57.878Z,100017.00
2022-10-15T15:32:25.210Z,100031.72
2022-10-15T15:34:53.857Z,100029.44
2022-10-15T15:37:22.989Z,100033.63
2022-10-15T15:39:50.197Z,100029.94
2022-10-15T15:42:19.845Z,100031.22
2022-10-15T15:44:46.544Z,100028.72
2022-10-15T15:47:13.901Z,100031.81
2022-10-15T15:49:40.678Z,100027.66
2022-10-15T15:52:09.893Z,100038.84
2022-10-15T15:54:36.272Z,100038.03
2022-10-15T15:57:02.701Z,100042.78
2022-10-15T15:59:29.095Z,100043.16
2022-10-15T16:01:55.605Z,100050.78
2022-10-15T16:04:22.065Z,100048.03
2022-10-15T16:06:51.527Z,100050.28
2022-10-15T16:09:20.142Z,100044.13
2022-10-15T16:11:46.748Z,100055.91
2022-10-15T16:14:13.133Z,100062.69
2022-10-15T16:16:39.836Z,100049.91
2022-10-15T16:19:06.315Z,100058.94
2022-10-15T16:21:33.728Z,100064.03
2022-10-15T16:26:27.621Z,100063.13
2022-10-15T16:28:54.715Z,100064.59
2022-10-15T16:31:27.873Z,100071.59
2022-10-15T16:33:56.619Z,100066.97
2022-10-15T16:36:23.014Z,100070.63
2022-10-15T16:38:49.514Z,100077.91
2022-10-15T16:41:19.199Z,100069.56
2022-10-15T16:43:47.449Z,100076.84
2022-10-15T16:46:14.739Z,100080.78
2022-10-15T16:48:41.401Z,100085.00
2022-10-15T16:51:13.137Z,100092.00
2022-10-15T16:53:41.783Z,100087.56
2022-10-15T16:56:11.851Z,100097.38
2022-10-15T16:58:38.267Z,100103.53
2022-10-15T17:01:07.389Z,100108.28
2022-10-15T17:03:38.134Z,100114.72
2022-10-15T17:06:09.924Z,100116.16
2022-10-15T17:08:49.038Z,100129.59
2022-10-15T17:11:17.100Z,100131.31
2022-10-15T17:13:44.123Z,100132.19
2022-10-15T17:16:19.354Z,100135.28
2022-10-15T17:18:46.410Z,100140.63
2022-10-15T17:21:19.607Z,100152.63
2022-10-15T17:23:46.541Z,100152.94
2022-10-15T17:26:16.059Z,100159.91
2022-10-15T17:28:46.921Z,100169.41
2022-10-15T17:31:19.176Z,100172.16
2022-10-15T17:33:46.518Z,100181.63
2022-10-15T17:36:21.901Z,100185.00
2022-10-15T17:38:48.621Z,100203.41
2022-10-15T17:41:17.521Z,100210.66
2022-10-15T17:43:44.634Z,100215.69
2022-10-15T17:46:16.958Z,100218.75
2022-10-15T17:48:44.193Z,100231.88
2022-10-15T17:51:14.125Z,100241.31
2022-10-15T17:53:41.588Z,100244.41
2022-10-15T17:56:11.386Z,100243.00
2022-10-15T17:58:38.413Z,100252.78
2022-10-15T18:01:05.558Z,100258.06
2022-10-15T18:03:31.993Z,100265.00
2022-10-15T18:05:58.414Z,100264.75
2022-10-15T18:08:24.884Z,100268.06
2022-10-15T18:10:52.829Z,100272.84
2022-10-15T18:13:19.695Z,100286.47
2022-10-15T18:15:51.117Z,100286.47
2022-10-15T18:18:17.684Z,100281.47
2022-10-15T18:20:45.441Z,100285.38
2022-10-15T18:23:12.615Z,100282.28
2022-10-15T18:25:39.042Z,100280.34
2022-10-15T18:28:07.517Z,100296.50
2022-10-15T18:30:38.237Z,100288.97
2022-10-15T18:33:05.275Z,100283.41
2022-10-15T18:35:34.981Z,100284.25
2022-10-15T18:38:01.852Z,100292.59
2022-10-15T18:40:28.269Z,100296.25
2022-10-15T18:42:54.704Z,100291.50
2022-10-15T18:45:21.140Z,100287.56
2022-10-15T18:47:52.427Z,100282.00
2022-10-15T18:50:18.858Z,100273.09
2022-10-15T18:52:45.549Z,100279.78
2022-10-15T18:55:12.204Z,100275.31
2022-10-15T18:57:39.584Z,100277.56
2022-10-15T19:00:06.720Z,100272.53
2022-10-15T19:02:33.209Z,100274.22
2022-10-15T19:04:59.633Z,100282.03
2022-10-15T19:07:26.037Z,100295.94
2022-10-15T19:09:52.439Z,100297.91
2022-10-15T19:12:18.853Z,100285.91
2022-10-15T19:14:45.331Z,100288.97
2022-10-15T19:17:12.782Z,100296.50
2022-10-15T19:19:39.451Z,100310.41
2022-10-15T19:22:06.069Z,100302.03
2022-10-15T19:24:32.489Z,100295.66
2022-10-15T19:26:58.905Z,100307.88
2022-10-15T19:29:25.379Z,100312.59
2022-10-15T19:31:52.334Z,100320.94
2022-10-15T19:34:18.781Z,100312.59
2022-10-15T19:36:47.977Z,100313.63
2022-10-15T19:39:20.046Z,100315.88
2022-10-15T19:41:46.633Z,100310.84
2022-10-15T19:44:16.974Z,100310.84
2022-10-15T19:46:43.835Z,100310.25
2022-10-15T19:49:11.826Z,100314.16
2022-10-15T19:51:38.863Z,100309.13
2022-10-15T19:54:05.338Z,100313.06
2022-10-15T19:56:32.959Z,100311.63
2022-10-15T19:59:02.996Z,100314.69
2022-10-15T20:01:30.322Z,100313.56
2022-10-15T20:04:05.039Z,100313.81
2022-10-15T20:06:34.479Z,100310.22
2022-10-15T20:09:02.025Z,100315.22
2022-10-15T20:11:28.401Z,100312.44
2022-10-15T20:13:54.827Z,100321.03
2022-10-15T20:16:23.090Z,100326.91
2022-10-15T20:18:50.179Z,100333.56
2022-10-15T20:21:17.007Z,100345.78
2022-10-15T20:23:45.185Z,100365.28
2022-10-15T20:26:13.771Z,100362.50
2022-10-15T20:28:42.166Z,100364.44
2022-10-15T20:31:11.671Z,100366.38
2022-10-15T20:33:39.952Z,100370.00
2022-10-15T20:36:14.670Z,100373.63
2022-10-15T20:38:41.970Z,100366.66
2022-10-15T20:41:15.181Z,100366.91
2022-10-15T20:43:43.006Z,100373.63
2022-10-15T20:46:16.268Z,100371.09
2022-10-15T20:48:44.993Z,100377.19
2022-10-15T20:51:13.510Z,100384.97
2022-10-15T20:53:40.372Z,100398.56
2022-10-15T20:56:07.262Z,100402.72
2022-10-15T20:58:33.689Z,100404.97
2022-10-15T21:01:00.154Z,100414.66
2022-10-15T21:03:26.697Z,100434.41
2022-10-15T21:05:53.612Z,100436.88
2022-10-15T21:08:20.016Z,100436.59
2022-10-15T21:10:46.438Z,100428.50
2022-10-15T21:13:12.816Z,100421.25
2022-10-15T21:15:39.213Z,100428.19
2022-10-15T21:18:05.621Z,100427.59
2022-10-15T21:20:32.071Z,100427.88
2022-10-15T21:22:58.507Z,100449.84
2022-10-15T21:25:25.069Z,100445.38
2022-10-15T21:27:52.027Z,100439.25
2022-10-15T21:30:18.815Z,100443.38
2022-10-15T21:32:45.201Z,100451.47
2022-10-15T21:35:11.677Z,100443.91
2022-10-15T21:37:38.821Z,100443.34
2022-10-15T21:40:07.638Z,100449.44
2022-10-15T21:42:34.348Z,100451.63
2022-10-15T21:45:00.753Z,100454.94
2022-10-15T21:47:27.537Z,100455.47
2022-10-15T21:49:54.059Z,100454.31
2022-10-15T21:52:20.442Z,100455.91
2022-10-15T21:54:46.942Z,100452.81
2022-10-15T21:57:13.366Z,100445.88
2022-10-15T21:59:39.856Z,100444.72
2022-10-15T22:02:06.420Z,100456.31
2022-10-15T22:04:34.859Z,100469.66
2022-10-15T22:07:01.920Z,100457.38
2022-10-15T22:09:28.754Z,100466.50
2022-10-15T22:11:55.115Z,100468.41
2022-10-15T22:14:21.550Z,100460.59
2022-10-15T22:16:47.986Z,100453.28
2022-10-15T22:19:16.049Z,100447.16
2022-10-15T22:21:42.902Z,100450.47
2022-10-15T22:24:15.661Z,100460.41
2022-10-15T22:26:47.553Z,100456.47
2022-10-15T22:29:23.417Z,100465.34
2022-10-15T22:31:50.445Z,100459.47
2022-10-15T22:34:18.224Z,100467.19
2022-10-15T22:36:44.870Z,100475.19
2022-10-15T22:39:14.393Z,100472.94
2022-10-15T22:41:42.584Z,100480.09
2022-10-15T22:44:12.541Z,100477.84
2022-10-15T22:46:40.319Z,100483.34
2022-10-15T22:49:08.294Z,100486.88
2022-10-15T22:51:35.189Z,100496.00
2022-10-15T22:54:02.089Z,100501.47
2022-10-15T22:56:28.577Z,100494.50
2022-10-15T22:58:56.815Z,100484.16
2022-10-15T23:01:25.570Z,100485.75
2022-10-15T23:03:55.859Z,100486.50
2022-10-15T23:06:23.268Z,100482.81
2022-10-15T23:08:50.242Z,100489.69
2022-10-15T23:11:19.832Z,100488.03
2022-10-15T23:13:47.873Z,100489.97
2022-10-15T23:16:18.394Z,100501.31
2022-10-15T23:18:46.351Z,100490.19
2022-10-15T23:21:17.655Z,100472.38
2022-10-15T23:23:45.321Z,100472.91
2022-10-15T23:26:14.673Z,100500.06
2022-10-15T23:28:42.842Z,100498.91
2022-10-15T23:31:20.745Z,100499.13
2022-10-15T23:33:47.997Z,100503.84
2022-10-15T23:36:14.733Z,100501.66
2022-10-15T23:38:41.343Z,100500.81
2022-10-15T23:41:09.642Z,100493.34
2022-10-15T23:43:36.385Z,100495.28
2022-10-15T23:46:03.604Z,100498.56
2022-10-15T23:48:30.070Z,100509.91
2022-10-15T23:51:00.866Z,100511.25
2022-10-15T23:53:33.086Z,100498.75
2022-10-15T23:56:02.839Z,100500.91
2022-10-15T23:58:29.335Z,100493.66
